createdAt,value
2018-05-18T00:00:55.814Z,6.10
2018-05-18T00:03:23.368Z,5.70
2018-05-18T00:05:50.933Z,5.37
2018-05-18T00:08:18.502Z,5.53
2018-05-18T00:10:46.076Z,5.23
2018-05-18T00:13:13.613Z,5.30
2018-05-18T00:15:41.206Z,5.27
2018-05-18T00:18:09.519Z,5.57
2018-05-18T00:20:37.090Z,5.57
2018-05-18T00:23:04.642Z,5.20
2018-05-18T00:25:33.105Z,5.57
2018-05-18T00:28:00.642Z,5.77
2018-05-18T00:30:28.250Z,6.33
2018-05-18T00:32:55.792Z,6.50
2018-05-18T00:35:23.369Z,5.13
2018-05-18T00:37:50.907Z,4.83
2018-05-18T00:40:19.221Z,5.37
2018-05-18T00:42:46.757Z,5.70
2018-05-18T00:45:14.325Z,5.43
2018-05-18T00:47:41.876Z,5.57
2018-05-18T00:50:09.418Z,5.50
2018-05-18T00:52:38.034Z,5.63
2018-05-18T00:55:17.349Z,5.57
2018-05-18T00:57:45.670Z,5.60
2018-05-18T01:00:13.235Z,5.60
2018-05-18T01:02:40.802Z,6.10
2018-05-18T01:05:08.335Z,6.63
2018-05-18T01:07:35.891Z,5.53
2018-05-18T01:10:03.415Z,5.80
2018-05-18T01:12:31.737Z,5.67
2018-05-18T01:14:59.276Z,5.70
2018-05-18T01:17:27.801Z,5.57
2018-05-18T01:19:55.325Z,5.37
2018-05-18T01:22:22.892Z,5.47
2018-05-18T01:24:50.425Z,5.50
2018-05-18T01:27:18.828Z,5.60
2018-05-18T01:29:46.382Z,6.30
2018-05-18T01:32:13.950Z,6.43
2018-05-18T01:34:41.493Z,5.80
2018-05-18T01:37:09.069Z,5.40
2018-05-18T01:39:36.613Z,4.80
2018-05-18T01:42:04.188Z,5.70
2018-05-18T01:44:31.727Z,5.50
2018-05-18T01:46:59.304Z,5.00
2018-05-18T01:49:26.844Z,4.60
2018-05-18T01:51:54.418Z,5.00
2018-05-18T01:54:21.961Z,5.07
2018-05-18T01:56:50.277Z,5.30
2018-05-18T01:59:17.848Z,4.13
2018-05-18T02:01:45.397Z,4.17
2018-05-18T02:04:12.972Z,4.07
2018-05-18T02:06:40.500Z,4.13
2018-05-18T02:09:08.085Z,3.87
2018-05-18T02:11:35.636Z,3.60
2018-05-18T02:14:03.229Z,4.60
2018-05-18T02:16:30.768Z,4.33
2018-05-18T02:18:58.343Z,4.33
2018-05-18T02:21:25.960Z,4.43
2018-05-18T02:23:53.506Z,4.03
2018-05-18T02:26:21.049Z,3.60
2018-05-18T02:28:48.616Z,3.90
2018-05-18T02:31:16.161Z,3.77
2018-05-18T02:33:44.501Z,3.90
2018-05-18T02:36:12.052Z,3.70
2018-05-18T02:38:39.612Z,3.63
2018-05-18T02:41:07.168Z,3.70
2018-05-18T02:43:34.740Z,3.57
2018-05-18T02:46:02.317Z,3.30
2018-05-18T02:48:29.912Z,3.93
2018-05-18T02:50:57.460Z,3.50
2018-05-18T02:53:25.018Z,3.40
2018-05-18T02:55:52.579Z,4.10
2018-05-18T02:58:20.147Z,4.37
2018-05-18T03:00:48.440Z,3.90
2018-05-18T03:03:16.769Z,4.20
2018-05-18T03:05:44.315Z,3.53
2018-05-18T03:08:11.893Z,3.90
2018-05-18T03:10:39.423Z,3.90
2018-05-18T03:13:07.002Z,3.53
2018-05-18T03:15:34.585Z,3.87
2018-05-18T03:18:02.148Z,3.70
2018-05-18T03:20:29.693Z,3.70
2018-05-18T03:22:57.256Z,4.27
2018-05-18T03:25:24.826Z,4.40
2018-05-18T03:27:53.126Z,3.93
2018-05-18T03:30:20.694Z,3.80
2018-05-18T03:32:48.274Z,3.77
2018-05-18T03:35:16.609Z,4.67
2018-05-18T03:37:44.940Z,4.53
2018-05-18T03:40:13.092Z,4.10
2018-05-18T03:42:41.400Z,3.73
2018-05-18T03:45:09.012Z,3.30
2018-05-18T03:47:36.548Z,3.70
2018-05-18T03:50:04.115Z,3.13
2018-05-18T03:52:31.658Z,3.80
2018-05-18T03:55:00.080Z,4.07
2018-05-18T03:57:27.662Z,3.90
2018-05-18T03:59:56.030Z,3.67
2018-05-18T04:02:35.520Z,4.37
2018-05-18T04:05:14.909Z,4.60
2018-05-18T04:07:54.226Z,3.83
2018-05-18T04:10:21.860Z,4.23
2018-05-18T04:12:49.350Z,4.13
2018-05-18T04:15:16.953Z,4.10
2018-05-18T04:17:44.511Z,3.83
2018-05-18T04:20:12.105Z,3.43
2018-05-18T04:22:39.670Z,3.43
2018-05-18T04:25:07.227Z,4.10
2018-05-18T04:27:34.785Z,3.17
2018-05-18T04:30:02.406Z,3.33
2018-05-18T04:32:29.913Z,3.80
2018-05-18T04:34:57.453Z,3.70
2018-05-18T04:37:25.029Z,3.57
2018-05-18T04:39:52.570Z,3.50
2018-05-18T04:42:20.135Z,4.20
2018-05-18T04:44:47.679Z,4.23
2018-05-18T04:47:15.229Z,4.43
2018-05-18T04:49:43.512Z,4.73
2018-05-18T04:52:11.836Z,4.50
2018-05-18T04:54:39.356Z,4.47
2018-05-18T04:57:06.881Z,4.23
2018-05-18T04:59:34.427Z,4.23
2018-05-18T05:02:01.969Z,4.87
2018-05-18T05:04:29.669Z,4.30
2018-05-18T05:06:57.356Z,4.50
2018-05-18T05:09:25.663Z,4.30
2018-05-18T05:11:53.190Z,4.43
2018-05-18T05:14:21.521Z,4.63
2018-05-18T05:16:49.045Z,4.67
2018-05-18T05:19:16.605Z,4.73
2018-05-18T05:21:44.127Z,4.50
2018-05-18T05:24:11.676Z,3.47
2018-05-18T05:26:39.207Z,6.97
2018-05-18T05:29:06.761Z,3.53
2018-05-18T05:31:34.296Z,3.93
2018-05-18T05:34:01.853Z,4.10
2018-05-18T05:36:29.391Z,4.03
2018-05-18T05:38:56.952Z,4.00
2018-05-18T05:41:24.481Z,3.67
2018-05-18T05:43:52.032Z,3.90
2018-05-18T05:46:19.559Z,4.13
2018-05-18T05:48:47.111Z,4.10
2018-05-18T05:51:15.392Z,3.93
2018-05-18T05:53:42.948Z,3.93
2018-05-18T05:56:11.240Z,4.13
2018-05-18T05:58:38.827Z,3.37
2018-05-18T06:01:06.349Z,4.10
2018-05-18T06:03:33.881Z,3.30
2018-05-18T06:06:01.433Z,4.13
2018-05-18T06:08:28.955Z,4.10
2018-05-18T06:10:56.504Z,3.53
2018-05-18T06:13:24.042Z,3.67
2018-05-18T06:15:52.355Z,3.50
2018-05-18T06:18:19.880Z,3.73
2018-05-18T06:20:48.208Z,4.10
2018-05-18T06:23:15.749Z,4.20
2018-05-18T06:25:43.312Z,3.80
2018-05-18T06:28:10.849Z,3.93
2018-05-18T06:30:38.404Z,3.83
2018-05-18T06:33:06.692Z,4.07
2018-05-18T06:35:34.244Z,4.10
2018-05-18T06:38:02.533Z,4.00
2018-05-18T06:40:30.083Z,3.70
2018-05-18T06:42:57.610Z,4.00
2018-05-18T06:45:25.161Z,4.27
2018-05-18T06:47:52.693Z,4.27
2018-05-18T06:50:20.253Z,3.50
2018-05-18T06:52:47.769Z,3.90
2018-05-18T06:55:16.081Z,3.57
2018-05-18T06:57:43.609Z,4.23
2018-05-18T07:00:11.931Z,3.70
2018-05-18T07:02:39.452Z,3.73
2018-05-18T07:05:07.741Z,4.00
2018-05-18T07:07:35.296Z,4.17
2018-05-18T07:10:02.828Z,3.77
2018-05-18T07:12:30.380Z,4.17
2018-05-18T07:14:58.120Z,4.17
2018-05-18T07:17:25.664Z,4.50
2018-05-18T07:19:53.187Z,4.20
2018-05-18T07:22:21.499Z,4.00
2018-05-18T07:24:49.021Z,4.00
2018-05-18T07:27:17.335Z,3.90
2018-05-18T07:29:44.874Z,3.87
2018-05-18T07:32:12.443Z,4.20
2018-05-18T07:34:39.955Z,4.07
2018-05-18T07:37:07.506Z,4.00
2018-05-18T07:39:35.795Z,4.07
2018-05-18T07:42:03.347Z,4.17
2018-05-18T07:44:30.872Z,4.40
2018-05-18T07:46:58.430Z,3.47
2018-05-18T07:49:25.949Z,4.13
2018-05-18T07:51:54.280Z,4.23
2018-05-18T07:54:21.816Z,4.30
2018-05-18T07:56:49.368Z,4.57
2018-05-18T07:59:17.660Z,4.00
2018-05-18T08:01:45.238Z,4.53
2018-05-18T08:04:12.768Z,4.10
2018-05-18T08:06:40.324Z,4.00
2018-05-18T08:09:08.617Z,4.40
2018-05-18T08:11:36.190Z,4.73
2018-05-18T08:14:03.721Z,4.53
2018-05-18T08:16:32.008Z,4.73
2018-05-18T08:18:59.561Z,4.40
2018-05-18T08:21:27.887Z,4.57
2018-05-18T08:23:55.420Z,4.70
2018-05-18T08:26:22.948Z,4.97
2018-05-18T08:29:03.164Z,4.63
2018-05-18T08:31:30.688Z,3.90
2018-05-18T08:33:58.243Z,4.77
2018-05-18T08:36:25.759Z,4.23
2018-05-18T08:38:53.313Z,3.70
2018-05-18T08:41:20.832Z,4.20
2018-05-18T08:43:48.394Z,4.70
2018-05-18T08:46:15.916Z,5.10
2018-05-18T08:48:43.496Z,4.80
2018-05-18T08:51:11.796Z,5.10
2018-05-18T08:53:39.369Z,4.40
2018-05-18T08:56:06.894Z,4.70
2018-05-18T08:58:34.460Z,4.30
2018-05-18T09:01:01.984Z,4.97
2018-05-18T09:03:29.544Z,4.63
2018-05-18T09:05:57.069Z,5.17
2018-05-18T09:08:24.620Z,5.63
2018-05-18T09:10:52.139Z,5.43
2018-05-18T09:13:20.456Z,4.87
2018-05-18T09:15:47.982Z,5.00
2018-05-18T09:18:15.608Z,5.10
2018-05-18T09:20:43.131Z,4.67
2018-05-18T09:23:10.690Z,4.47
2018-05-18T09:25:38.220Z,4.80
2018-05-18T09:28:05.780Z,5.00
2018-05-18T09:30:34.072Z,5.00
2018-05-18T09:33:02.392Z,4.90
2018-05-18T09:35:29.946Z,4.90
2018-05-18T09:37:57.475Z,5.50
2018-05-18T09:40:25.030Z,4.83
2018-05-18T09:42:53.321Z,4.67
2018-05-18T09:45:20.876Z,5.20
2018-05-18T09:47:48.406Z,5.20
2018-05-18T09:50:15.955Z,5.00
2018-05-18T09:52:43.486Z,4.77
2018-05-18T09:55:11.237Z,5.37
2018-05-18T09:57:38.576Z,4.97
2018-05-18T10:00:06.123Z,4.90
2018-05-18T10:02:34.412Z,4.37
2018-05-18T10:05:01.963Z,5.70
2018-05-18T10:07:30.252Z,5.63
2018-05-18T10:09:57.808Z,5.43
2018-05-18T10:12:25.345Z,4.47
2018-05-18T10:14:53.676Z,4.77
2018-05-18T10:17:21.200Z,5.37
2018-05-18T10:19:49.543Z,5.53
2018-05-18T10:22:17.081Z,5.73
2018-05-18T10:24:44.607Z,5.03
2018-05-18T10:27:12.164Z,4.97
2018-05-18T10:29:39.692Z,5.20
2018-05-18T10:32:07.252Z,4.90
2018-05-18T10:34:34.773Z,5.47
2018-05-18T10:37:02.319Z,5.53
2018-05-18T10:39:29.839Z,5.03
2018-05-18T10:41:57.397Z,5.00
2018-05-18T10:44:24.925Z,5.10
2018-05-18T10:46:52.480Z,4.57
2018-05-18T10:49:20.100Z,5.13
2018-05-18T10:51:47.585Z,4.67
2018-05-18T10:54:15.113Z,5.20
2018-05-18T10:56:43.435Z,5.03
2018-05-18T10:59:10.975Z,5.23
2018-05-18T11:01:38.541Z,4.67
2018-05-18T11:04:06.077Z,5.10
2018-05-18T11:06:33.636Z,5.10
2018-05-18T11:09:01.929Z,5.37
2018-05-18T11:11:29.479Z,4.90
2018-05-18T11:13:57.031Z,5.00
2018-05-18T11:16:25.320Z,4.93
2018-05-18T11:18:52.879Z,5.20
2018-05-18T11:21:22.255Z,4.43
2018-05-18T11:23:50.958Z,5.33
2018-05-18T11:26:20.423Z,4.93
2018-05-18T11:28:48.794Z,4.70
2018-05-18T11:31:16.429Z,4.80
2018-05-18T11:33:43.975Z,5.03
2018-05-18T11:36:12.269Z,5.40
2018-05-18T11:38:39.828Z,4.80
2018-05-18T11:41:07.352Z,5.00
2018-05-18T11:43:35.671Z,4.93
2018-05-18T11:46:03.196Z,5.13
2018-05-18T11:48:31.511Z,5.23
2018-05-18T11:50:59.031Z,4.77
2018-05-18T11:53:27.378Z,5.20
2018-05-18T11:55:54.901Z,5.23
2018-05-18T11:58:22.456Z,4.97
2018-05-18T12:00:49.975Z,5.40
2018-05-18T12:03:17.527Z,5.43
2018-05-18T12:05:45.050Z,5.17
2018-05-18T12:08:12.659Z,5.97
2018-05-18T12:10:40.152Z,5.27
2018-05-18T12:13:07.713Z,5.07
2018-05-18T12:15:35.251Z,5.20
2018-05-18T12:18:03.588Z,5.70
2018-05-18T12:20:31.105Z,5.37
2018-05-18T12:22:58.637Z,5.20
2018-05-18T12:25:26.191Z,5.40
2018-05-18T12:27:53.711Z,4.77
2018-05-18T12:30:21.264Z,5.30
2018-05-18T12:32:48.788Z,5.80
2018-05-18T12:35:17.105Z,5.70
2018-05-18T12:37:44.624Z,5.27
2018-05-18T12:40:12.952Z,5.57
2018-05-18T12:42:40.472Z,6.00
2018-05-18T12:45:08.798Z,5.47
2018-05-18T12:47:36.319Z,4.90
2018-05-18T12:50:03.875Z,5.33
2018-05-18T12:52:32.164Z,5.80
2018-05-18T12:54:59.805Z,5.27
2018-05-18T12:57:27.265Z,5.87
2018-05-18T12:59:55.585Z,5.20
2018-05-18T13:02:23.117Z,5.27
2018-05-18T13:04:50.677Z,5.07
2018-05-18T13:07:18.203Z,6.43
2018-05-18T13:09:45.752Z,5.10
2018-05-18T13:12:13.285Z,5.53
2018-05-18T13:14:40.840Z,5.60
2018-05-18T13:17:08.377Z,5.80
2018-05-18T13:19:35.928Z,5.87
2018-05-18T13:22:04.211Z,5.13
2018-05-18T13:24:31.784Z,5.23
2018-05-18T13:26:59.312Z,5.07
2018-05-18T13:29:26.828Z,5.33
2018-05-18T13:31:54.388Z,5.00
2018-05-18T13:34:21.915Z,5.23
2018-05-18T13:36:49.468Z,5.50
2018-05-18T13:39:17.752Z,5.23
2018-05-18T13:41:46.060Z,5.37
2018-05-18T13:44:13.589Z,4.80
2018-05-18T13:46:41.148Z,5.30
2018-05-18T13:49:08.684Z,5.63
2018-05-18T13:51:36.241Z,5.33
2018-05-18T13:54:03.764Z,5.47
2018-05-18T13:56:31.321Z,4.80
2018-05-18T13:58:58.844Z,5.10
2018-05-18T14:01:27.164Z,5.47
2018-05-18T14:03:54.688Z,4.67
2018-05-18T14:06:22.245Z,5.40
2018-05-18T14:08:49.772Z,5.83
2018-05-18T14:11:17.332Z,5.00
2018-05-18T14:13:44.849Z,5.23
2018-05-18T14:16:12.405Z,5.20
2018-05-18T14:18:39.923Z,5.37
2018-05-18T14:21:07.475Z,5.60
2018-05-18T14:23:34.995Z,5.40
2018-05-18T14:26:02.554Z,6.17
2018-05-18T14:28:30.072Z,4.90
2018-05-18T14:30:58.360Z,5.43
2018-05-18T14:33:26.669Z,5.50
2018-05-18T14:35:54.196Z,5.20
2018-05-18T14:38:22.509Z,5.03
2018-05-18T14:40:50.044Z,5.73
2018-05-18T14:43:17.592Z,5.77
2018-05-18T14:45:45.880Z,5.23
2018-05-18T14:48:13.436Z,4.40
2018-05-18T14:50:41.721Z,5.13
2018-05-18T14:53:09.282Z,5.27
2018-05-18T14:55:36.808Z,5.03
2018-05-18T14:58:04.355Z,5.10
2018-05-18T15:00:31.888Z,4.80
2018-05-18T15:02:59.441Z,4.90
2018-05-18T15:05:26.964Z,4.53
2018-05-18T15:07:55.280Z,4.87
2018-05-18T15:10:22.809Z,4.90
2018-05-18T15:12:51.127Z,4.93
2018-05-18T15:15:18.657Z,4.97
2018-05-18T15:17:46.211Z,5.60
2018-05-18T15:20:13.741Z,4.70
2018-05-18T15:22:41.303Z,4.57
2018-05-18T15:25:08.824Z,4.50
2018-05-18T15:27:36.382Z,4.67
2018-05-18T15:30:03.899Z,4.07
2018-05-18T15:32:32.219Z,4.73
2018-05-18T15:34:59.746Z,4.47
2018-05-18T15:37:27.393Z,4.57
2018-05-18T15:39:54.848Z,4.60
2018-05-18T15:42:23.144Z,4.80
2018-05-18T15:44:50.697Z,4.00
2018-05-18T15:47:18.981Z,4.57
2018-05-18T15:49:47.300Z,5.03
2018-05-18T15:52:14.820Z,4.37
2018-05-18T15:54:42.371Z,4.87
2018-05-18T15:57:10.666Z,5.27
2018-05-18T15:59:38.215Z,4.43
2018-05-18T16:02:06.500Z,4.47
2018-05-18T16:04:34.044Z,5.17
2018-05-18T16:07:02.332Z,4.57
2018-05-18T16:09:30.651Z,4.90
2018-05-18T16:11:58.176Z,4.83
2018-05-18T16:14:25.743Z,4.83
2018-05-18T16:16:53.261Z,4.80
2018-05-18T16:19:20.803Z,4.90
2018-05-18T16:21:48.331Z,5.53
2018-05-18T16:24:15.885Z,4.37
2018-05-18T16:26:43.412Z,5.00
2018-05-18T16:29:11.728Z,4.90
2018-05-18T16:31:39.246Z,4.97
2018-05-18T16:34:06.812Z,4.37
2018-05-18T16:36:35.107Z,4.90
2018-05-18T16:39:02.633Z,4.53
2018-05-18T16:41:30.189Z,5.17
2018-05-18T16:43:57.709Z,4.73
2018-05-18T16:46:25.268Z,4.37
2018-05-18T16:48:52.791Z,4.50
2018-05-18T16:51:21.108Z,4.67
2018-05-18T16:53:48.623Z,4.50
2018-05-18T16:56:16.947Z,5.03
2018-05-18T16:58:44.469Z,4.67
2018-05-18T17:01:12.824Z,5.10
2018-05-18T17:03:40.344Z,4.97
2018-05-18T17:06:07.891Z,4.80
2018-05-18T17:08:35.409Z,5.10
2018-05-18T17:11:02.960Z,5.20
2018-05-18T17:13:30.483Z,4.57
2018-05-18T17:15:58.033Z,4.63
2018-05-18T17:18:25.556Z,4.70
2018-05-18T17:20:53.112Z,4.33
2018-05-18T17:23:21.406Z,4.30
2018-05-18T17:25:49.773Z,4.27
2018-05-18T17:28:17.269Z,4.57
2018-05-18T17:30:44.815Z,4.60
2018-05-18T17:33:12.340Z,4.93
2018-05-18T17:35:39.890Z,5.17
2018-05-18T17:38:07.419Z,4.87
2018-05-18T17:40:34.968Z,4.77
2018-05-18T17:43:02.484Z,4.43
2018-05-18T17:45:30.004Z,4.37
2018-05-18T17:47:57.560Z,4.83
2018-05-18T17:50:25.080Z,4.63
2018-05-18T17:52:53.400Z,4.50
2018-05-18T17:55:20.924Z,4.60
2018-05-18T17:57:48.492Z,4.27
2018-05-18T18:00:16.017Z,4.33
2018-05-18T18:02:43.565Z,4.50
2018-05-18T18:05:11.095Z,4.37
2018-05-18T18:07:38.654Z,4.80
2018-05-18T18:10:06.176Z,4.10
2018-05-18T18:12:34.496Z,3.90
2018-05-18T18:15:02.015Z,4.30
2018-05-18T18:17:30.395Z,4.70
2018-05-18T18:19:58.753Z,3.87
2018-05-18T18:22:26.330Z,4.70
2018-05-18T18:24:53.846Z,4.00
2018-05-18T18:27:21.397Z,4.63
2018-05-18T18:29:48.923Z,4.47
2018-05-18T18:32:17.240Z,4.33
2018-05-18T18:34:44.769Z,4.17
2018-05-18T18:37:12.319Z,4.27
2018-05-18T18:39:40.617Z,4.23
2018-05-18T18:42:08.169Z,4.40
2018-05-18T18:44:35.711Z,3.67
2018-05-18T18:47:04.009Z,4.23
2018-05-18T18:49:31.566Z,4.23
2018-05-18T18:51:59.091Z,4.57
2018-05-18T18:54:27.424Z,4.80
2018-05-18T18:56:54.955Z,4.17
2018-05-18T18:59:23.286Z,4.07
2018-05-18T19:01:50.812Z,4.47
2018-05-18T19:04:18.360Z,4.33
2018-05-18T19:06:45.897Z,4.63
2018-05-18T19:09:14.213Z,3.70
2018-05-18T19:11:41.989Z,4.93
2018-05-18T19:14:09.536Z,4.60
2018-05-18T19:16:37.060Z,4.63
2018-05-18T19:19:05.383Z,5.23
2018-05-18T19:21:32.903Z,4.87
2018-05-18T19:24:01.225Z,5.33
2018-05-18T19:26:28.749Z,4.87
2018-05-18T19:28:57.072Z,5.03
2018-05-18T19:31:24.596Z,4.37
2018-05-18T19:33:52.149Z,5.17
2018-05-18T19:36:20.440Z,5.20
2018-05-18T19:38:47.992Z,5.07
2018-05-18T19:41:15.519Z,4.90
2018-05-18T19:43:43.114Z,5.40
2018-05-18T19:46:11.389Z,5.30
2018-05-18T19:48:38.919Z,5.47
2018-05-18T19:51:06.468Z,5.37
2018-05-18T19:53:34.009Z,5.40
2018-05-18T19:56:01.562Z,5.30
2018-05-18T19:58:29.088Z,5.77
2018-05-18T20:00:57.414Z,5.77
2018-05-18T20:03:24.941Z,5.87
2018-05-18T20:05:52.491Z,5.47
2018-05-18T20:08:20.020Z,5.60
2018-05-18T20:10:47.568Z,6.23
2018-05-18T20:13:15.154Z,5.70
2018-05-18T20:15:43.472Z,6.63
2018-05-18T20:18:10.991Z,6.10
2018-05-18T20:20:39.313Z,6.20
2018-05-18T20:23:06.832Z,6.07
2018-05-18T20:25:35.168Z,5.83
2018-05-18T20:28:02.688Z,5.70
2018-05-18T20:30:30.240Z,6.10
2018-05-18T20:32:57.764Z,5.97
2018-05-18T20:35:25.311Z,6.17
2018-05-18T20:37:52.835Z,6.63
2018-05-18T20:40:20.389Z,5.90
2018-05-18T20:42:47.920Z,6.40
2018-05-18T20:45:15.477Z,6.90
2018-05-18T20:47:43.006Z,5.77
2018-05-18T20:50:10.529Z,6.27
2018-05-18T20:52:38.079Z,6.57
2018-05-18T20:55:06.363Z,6.70
2018-05-18T20:57:33.919Z,6.10
2018-05-18T21:00:01.449Z,6.30
2018-05-18T21:02:29.000Z,6.23
2018-05-18T21:04:56.520Z,6.00
2018-05-18T21:07:24.072Z,6.20
2018-05-18T21:09:52.623Z,5.87
2018-05-18T21:12:21.282Z,6.47
2018-05-18T21:14:49.221Z,6.00
2018-05-18T21:17:18.216Z,6.40
2018-05-18T21:19:45.901Z,6.80
2018-05-18T21:22:13.476Z,5.90
2018-05-18T21:24:41.011Z,5.93
2018-05-18T21:27:09.173Z,6.30
2018-05-18T21:29:36.816Z,6.60
2018-05-18T21:32:04.732Z,6.07
2018-05-18T21:34:33.020Z,6.20
2018-05-18T21:37:01.245Z,5.73
2018-05-18T21:39:29.451Z,6.30
2018-05-18T21:41:57.857Z,5.60
2018-05-18T21:44:26.085Z,6.37
2018-05-18T21:46:53.813Z,6.90
2018-05-18T21:49:23.357Z,6.03
2018-05-18T21:51:54.325Z,6.87
2018-05-18T21:54:23.144Z,6.17
2018-05-18T21:56:51.450Z,6.43
2018-05-18T21:59:22.527Z,6.83
2018-05-18T22:01:50.174Z,6.63
2018-05-18T22:04:17.776Z,6.90
2018-05-18T22:06:46.664Z,7.27
2018-05-18T22:09:14.329Z,7.23
2018-05-18T22:11:41.878Z,6.70
2018-05-18T22:14:09.752Z,6.40
2018-05-18T22:16:37.697Z,7.30
2018-05-18T22:19:05.956Z,6.57
2018-05-18T22:21:34.183Z,6.93
2018-05-18T22:24:01.970Z,6.30
2018-05-18T22:26:31.248Z,6.40
2018-05-18T22:29:03.491Z,6.47
2018-05-18T22:31:32.036Z,6.77
2018-05-18T22:34:01.672Z,6.80
2018-05-18T22:36:30.164Z,7.27
2018-05-18T22:38:59.626Z,7.50
2018-05-18T22:41:27.412Z,7.23
2018-05-18T22:43:54.981Z,7.40
2018-05-18T22:46:22.512Z,7.60
2018-05-18T22:48:50.843Z,7.30
2018-05-18T22:51:18.378Z,7.20
2018-05-18T22:53:45.937Z,7.23
2018-05-18T22:56:13.469Z,6.77
2018-05-18T22:58:41.805Z,7.50
2018-05-18T23:01:09.342Z,7.57
2018-05-18T23:03:36.906Z,7.27
2018-05-18T23:06:04.438Z,6.83
2018-05-18T23:08:32.005Z,7.20
2018-05-18T23:10:59.544Z,7.43
2018-05-18T23:13:27.885Z,6.97
2018-05-18T23:15:55.404Z,7.17
2018-05-18T23:18:22.967Z,6.60
2018-05-18T23:20:50.501Z,7.30
2018-05-18T23:23:18.836Z,6.97
2018-05-18T23:25:46.372Z,7.57
2018-05-18T23:28:13.945Z,8.10
2018-05-18T23:30:41.476Z,7.37
2018-05-18T23:33:09.033Z,7.40
2018-05-18T23:35:36.565Z,7.77
2018-05-18T23:38:04.119Z,7.53
2018-05-18T23:40:31.646Z,7.80
2018-05-18T23:42:59.215Z,8.07
2018-05-18T23:45:26.738Z,8.13
2018-05-18T23:47:54.265Z,7.80
2018-05-18T23:50:21.825Z,8.10
2018-05-18T23:52:49.358Z,7.90
2018-05-18T23:55:16.914Z,7.73
2018-05-18T23:57:44.448Z,7.77
